sensor_id;sensor_type;location;lat;lon;timestamp;P1;durP1;ratioP1;P2;durP2;ratioP2
37237;SDS011;23129;49.662;8.448;2023-09-30T00:00:06;4.45;;;1.90;;
37237;SDS011;23129;49.662;8.448;2023-09-30T00:02:38;6.53;;;1.95;;
37237;SDS011;23129;49.662;8.448;2023-09-30T00:05:07;5.18;;;1.63;;
37237;SDS011;23129;49.662;8.448;2023-09-30T00:07:36;4.00;;;1.90;;
37237;SDS011;23129;49.662;8.448;2023-09-30T00:10:06;6.38;;;1.55;;
37237;SDS011;23129;49.662;8.448;2023-09-30T00:12:36;4.47;;;1.95;;
37237;SDS011;23129;49.662;8.448;2023-09-30T00:15:05;5.68;;;1.70;;
37237;SDS011;23129;49.662;8.448;2023-09-30T00:17:35;11.15;;;2.00;;
37237;SDS011;23129;49.662;8.448;2023-09-30T00:20:04;10.25;;;2.42;;
37237;SDS011;23129;49.662;8.448;2023-09-30T00:22:33;4.85;;;1.98;;
37237;SDS011;23129;49.662;8.448;2023-09-30T00:25:02;5.55;;;2.00;;
37237;SDS011;23129;49.662;8.448;2023-09-30T00:27:33;4.05;;;2.08;;
37237;SDS011;23129;49.662;8.448;2023-09-30T00:30:02;4.25;;;2.25;;
37237;SDS011;23129;49.662;8.448;2023-09-30T00:32:33;11.50;;;2.60;;
37237;SDS011;23129;49.662;8.448;2023-09-30T00:35:02;9.00;;;2.53;;
37237;SDS011;23129;49.662;8.448;2023-09-30T00:37:31;14.98;;;2.42;;
37237;SDS011;23129;49.662;8.448;2023-09-30T00:40:01;12.00;;;3.05;;
37237;SDS011;23129;49.662;8.448;2023-09-30T00:42:30;4.88;;;1.92;;
37237;SDS011;23129;49.662;8.448;2023-09-30T00:45:00;4.97;;;2.10;;
37237;SDS011;23129;49.662;8.448;2023-09-30T00:47:31;6.93;;;2.60;;
37237;SDS011;23129;49.662;8.448;2023-09-30T00:50:00;13.93;;;2.88;;
37237;SDS011;23129;49.662;8.448;2023-09-30T00:52:30;7.13;;;2.38;;
37237;SDS011;23129;49.662;8.448;2023-09-30T00:55:00;11.68;;;2.95;;
37237;SDS011;23129;49.662;8.448;2023-09-30T00:57:30;5.80;;;3.03;;
37237;SDS011;23129;49.662;8.448;2023-09-30T01:00:01;8.90;;;3.10;;
37237;SDS011;23129;49.662;8.448;2023-09-30T01:02:30;3.78;;;2.50;;
37237;SDS011;23129;49.662;8.448;2023-09-30T01:05:01;7.97;;;2.47;;
37237;SDS011;23129;49.662;8.448;2023-09-30T01:07:31;7.13;;;2.58;;
37237;SDS011;23129;49.662;8.448;2023-09-30T01:10:00;10.13;;;2.80;;
37237;SDS011;23129;49.662;8.448;2023-09-30T01:12:30;10.40;;;3.13;;
37237;SDS011;23129;49.662;8.448;2023-09-30T01:14:59;7.30;;;2.80;;
37237;SDS011;23129;49.662;8.448;2023-09-30T01:17:34;8.77;;;2.60;;
37237;SDS011;23129;49.662;8.448;2023-09-30T01:20:03;6.45;;;3.22;;
37237;SDS011;23129;49.662;8.448;2023-09-30T01:22:36;3.95;;;3.20;;
37237;SDS011;23129;49.662;8.448;2023-09-30T01:25:06;6.63;;;3.50;;
37237;SDS011;23129;49.662;8.448;2023-09-30T01:27:37;6.55;;;2.50;;
37237;SDS011;23129;49.662;8.448;2023-09-30T01:30:06;9.80;;;3.33;;
37237;SDS011;23129;49.662;8.448;2023-09-30T01:32:38;6.50;;;3.20;;
37237;SDS011;23129;49.662;8.448;2023-09-30T01:35:07;6.13;;;3.38;;
37237;SDS011;23129;49.662;8.448;2023-09-30T01:37:39;11.57;;;3.17;;
37237;SDS011;23129;49.662;8.448;2023-09-30T01:40:08;8.63;;;3.50;;
37237;SDS011;23129;49.662;8.448;2023-09-30T01:42:37;7.47;;;3.45;;
37237;SDS011;23129;49.662;8.448;2023-09-30T01:45:06;12.55;;;3.83;;
37237;SDS011;23129;49.662;8.448;2023-09-30T01:47:36;8.45;;;3.78;;
37237;SDS011;23129;49.662;8.448;2023-09-30T01:50:05;14.88;;;3.08;;
37237;SDS011;23129;49.662;8.448;2023-09-30T01:52:35;9.02;;;3.17;;
37237;SDS011;23129;49.662;8.448;2023-09-30T01:55:05;7.20;;;3.03;;
37237;SDS011;23129;49.662;8.448;2023-09-30T01:57:34;12.98;;;3.63;;
37237;SDS011;23129;49.662;8.448;2023-09-30T02:00:10;9.45;;;3.05;;
37237;SDS011;23129;49.662;8.448;2023-09-30T02:02:46;9.43;;;3.03;;
37237;SDS011;23129;49.662;8.448;2023-09-30T02:05:15;11.60;;;3.95;;
37237;SDS011;23129;49.662;8.448;2023-09-30T02:07:43;7.90;;;3.78;;
37237;SDS011;23129;49.662;8.448;2023-09-30T02:10:13;15.43;;;4.25;;
37237;SDS011;23129;49.662;8.448;2023-09-30T02:12:45;8.60;;;2.78;;
37237;SDS011;23129;49.662;8.448;2023-09-30T02:15:14;5.97;;;2.83;;
37237;SDS011;23129;49.662;8.448;2023-09-30T02:17:43;5.20;;;3.30;;
37237;SDS011;23129;49.662;8.448;2023-09-30T02:20:15;9.18;;;2.85;;
37237;SDS011;23129;49.662;8.448;2023-09-30T02:22:46;9.07;;;3.90;;
37237;SDS011;23129;49.662;8.448;2023-09-30T02:25:16;4.97;;;3.08;;
37237;SDS011;23129;49.662;8.448;2023-09-30T02:27:45;6.85;;;3.00;;
37237;SDS011;23129;49.662;8.448;2023-09-30T02:30:16;10.20;;;3.03;;
37237;SDS011;23129;49.662;8.448;2023-09-30T02:32:45;8.10;;;3.10;;
37237;SDS011;23129;49.662;8.448;2023-09-30T02:35:14;9.15;;;3.75;;
37237;SDS011;23129;49.662;8.448;2023-09-30T02:37:43;8.43;;;3.33;;
37237;SDS011;23129;49.662;8.448;2023-09-30T02:40:11;11.43;;;3.67;;
37237;SDS011;23129;49.662;8.448;2023-09-30T02:42:43;4.90;;;2.92;;
37237;SDS011;23129;49.662;8.448;2023-09-30T02:45:12;9.20;;;4.03;;
37237;SDS011;23129;49.662;8.448;2023-09-30T02:47:40;10.95;;;3.78;;
37237;SDS011;23129;49.662;8.448;2023-09-30T02:50:09;12.13;;;3.53;;
37237;SDS011;23129;49.662;8.448;2023-09-30T02:52:38;5.72;;;3.75;;
37237;SDS011;23129;49.662;8.448;2023-09-30T02:55:08;9.43;;;3.60;;
37237;SDS011;23129;49.662;8.448;2023-09-30T02:57:38;12.13;;;3.90;;
37237;SDS011;23129;49.662;8.448;2023-09-30T03:00:10;9.52;;;4.30;;
37237;SDS011;23129;49.662;8.448;2023-09-30T03:02:50;6.47;;;3.78;;
37237;SDS011;23129;49.662;8.448;2023-09-30T03:05:20;7.47;;;4.38;;
37237;SDS011;23129;49.662;8.448;2023-09-30T03:07:50;10.50;;;3.70;;
37237;SDS011;23129;49.662;8.448;2023-09-30T03:10:19;8.38;;;4.85;;
37237;SDS011;23129;49.662;8.448;2023-09-30T03:12:50;5.18;;;3.95;;
37237;SDS011;23129;49.662;8.448;2023-09-30T03:15:21;6.75;;;3.55;;
37237;SDS011;23129;49.662;8.448;2023-09-30T03:17:50;8.68;;;3.72;;
37237;SDS011;23129;49.662;8.448;2023-09-30T03:20:21;6.63;;;4.03;;
37237;SDS011;23129;49.662;8.448;2023-09-30T03:22:51;10.80;;;4.45;;
37237;SDS011;23129;49.662;8.448;2023-09-30T03:25:20;6.40;;;4.22;;
37237;SDS011;23129;49.662;8.448;2023-09-30T03:27:50;13.13;;;4.53;;
37237;SDS011;23129;49.662;8.448;2023-09-30T03:30:21;7.10;;;4.22;;
37237;SDS011;23129;49.662;8.448;2023-09-30T03:32:51;9.15;;;4.78;;
37237;SDS011;23129;49.662;8.448;2023-09-30T03:35:19;8.75;;;4.10;;
37237;SDS011;23129;49.662;8.448;2023-09-30T03:37:48;10.70;;;4.82;;
37237;SDS011;23129;49.662;8.448;2023-09-30T03:40:17;8.52;;;4.72;;
37237;SDS011;23129;49.662;8.448;2023-09-30T03:42:47;15.65;;;4.75;;
37237;SDS011;23129;49.662;8.448;2023-09-30T03:45:17;11.82;;;5.57;;
37237;SDS011;23129;49.662;8.448;2023-09-30T03:47:48;10.27;;;4.68;;
37237;SDS011;23129;49.662;8.448;2023-09-30T03:50:18;8.90;;;4.60;;
37237;SDS011;23129;49.662;8.448;2023-09-30T03:52:50;11.52;;;5.53;;
37237;SDS011;23129;49.662;8.448;2023-09-30T03:55:18;14.23;;;4.72;;
37237;SDS011;23129;49.662;8.448;2023-09-30T03:57:49;9.70;;;4.88;;
37237;SDS011;23129;49.662;8.448;2023-09-30T04:00:18;8.57;;;4.57;;
37237;SDS011;23129;49.662;8.448;2023-09-30T04:02:49;9.15;;;4.50;;
37237;SDS011;23129;49.662;8.448;2023-09-30T04:05:21;14.80;;;5.25;;
37237;SDS011;23129;49.662;8.448;2023-09-30T04:07:55;15.40;;;5.30;;
37237;SDS011;23129;49.662;8.448;2023-09-30T04:10:24;8.02;;;5.25;;
37237;SDS011;23129;49.662;8.448;2023-09-30T04:12:53;10.10;;;5.05;;
37237;SDS011;23129;49.662;8.448;2023-09-30T04:15:22;8.35;;;4.60;;
37237;SDS011;23129;49.662;8.448;2023-09-30T04:17:52;8.38;;;4.50;;
37237;SDS011;23129;49.662;8.448;2023-09-30T04:20:21;13.38;;;5.35;;
37237;SDS011;23129;49.662;8.448;2023-09-30T04:22:53;7.97;;;4.60;;
37237;SDS011;23129;49.662;8.448;2023-09-30T04:25:24;9.35;;;4.78;;
37237;SDS011;23129;49.662;8.448;2023-09-30T04:27:53;8.95;;;4.82;;
37237;SDS011;23129;49.662;8.448;2023-09-30T04:30:22;7.35;;;4.45;;
37237;SDS011;23129;49.662;8.448;2023-09-30T04:32:50;12.27;;;5.40;;
37237;SDS011;23129;49.662;8.448;2023-09-30T04:35:21;11.38;;;4.55;;
37237;SDS011;23129;49.662;8.448;2023-09-30T04:37:51;10.05;;;5.35;;
37237;SDS011;23129;49.662;8.448;2023-09-30T04:40:20;9.43;;;4.53;;
37237;SDS011;23129;49.662;8.448;2023-09-30T04:42:49;12.05;;;4.70;;
37237;SDS011;23129;49.662;8.448;2023-09-30T04:45:17;7.43;;;4.78;;
37237;SDS011;23129;49.662;8.448;2023-09-30T04:47:47;8.82;;;5.15;;
37237;SDS011;23129;49.662;8.448;2023-09-30T04:50:18;10.15;;;4.03;;
37237;SDS011;23129;49.662;8.448;2023-09-30T04:52:49;10.70;;;4.93;;
37237;SDS011;23129;49.662;8.448;2023-09-30T04:55:20;8.82;;;4.65;;
37237;SDS011;23129;49.662;8.448;2023-09-30T04:57:48;19.10;;;5.38;;
37237;SDS011;23129;49.662;8.448;2023-09-30T05:00:20;11.18;;;5.10;;
37237;SDS011;23129;49.662;8.448;2023-09-30T05:02:52;8.23;;;3.70;;
37237;SDS011;23129;49.662;8.448;2023-09-30T05:05:23;12.80;;;4.38;;
37237;SDS011;23129;49.662;8.448;2023-09-30T05:07:52;9.43;;;4.05;;
37237;SDS011;23129;49.662;8.448;2023-09-30T05:10:21;11.73;;;4.65;;
37237;SDS011;23129;49.662;8.448;2023-09-30T05:12:50;11.05;;;4.55;;
37237;SDS011;23129;49.662;8.448;2023-09-30T05:15:21;10.73;;;4.07;;
37237;SDS011;23129;49.662;8.448;2023-09-30T05:17:49;11.88;;;4.50;;
37237;SDS011;23129;49.662;8.448;2023-09-30T05:20:18;8.05;;;4.20;;
37237;SDS011;23129;49.662;8.448;2023-09-30T05:22:48;10.18;;;4.40;;
37237;SDS011;23129;49.662;8.448;2023-09-30T05:25:17;10.13;;;3.80;;
37237;SDS011;23129;49.662;8.448;2023-09-30T05:27:46;14.50;;;4.95;;
37237;SDS011;23129;49.662;8.448;2023-09-30T05:30:15;15.07;;;3.78;;
37237;SDS011;23129;49.662;8.448;2023-09-30T05:32:46;10.95;;;4.97;;
37237;SDS011;23129;49.662;8.448;2023-09-30T05:35:19;16.08;;;4.72;;
37237;SDS011;23129;49.662;8.448;2023-09-30T05:37:50;8.45;;;4.15;;
37237;SDS011;23129;49.662;8.448;2023-09-30T05:40:20;15.65;;;4.72;;
37237;SDS011;23129;49.662;8.448;2023-09-30T05:42:52;11.38;;;4.63;;
37237;SDS011;23129;49.662;8.448;2023-09-30T05:45:21;11.60;;;4.75;;
37237;SDS011;23129;49.662;8.448;2023-09-30T05:47:52;11.88;;;4.53;;
37237;SDS011;23129;49.662;8.448;2023-09-30T05:50:23;10.35;;;4.63;;
37237;SDS011;23129;49.662;8.448;2023-09-30T05:52:55;11.40;;;4.65;;
37237;SDS011;23129;49.662;8.448;2023-09-30T05:55:23;8.82;;;4.68;;
37237;SDS011;23129;49.662;8.448;2023-09-30T05:57:53;10.65;;;5.72;;
37237;SDS011;23129;49.662;8.448;2023-09-30T06:00:22;12.23;;;5.45;;
37237;SDS011;23129;49.662;8.448;2023-09-30T06:02:56;13.25;;;5.13;;
37237;SDS011;23129;49.662;8.448;2023-09-30T06:05:25;11.40;;;4.35;;
37237;SDS011;23129;49.662;8.448;2023-09-30T06:07:58;20.77;;;5.78;;
37237;SDS011;23129;49.662;8.448;2023-09-30T06:10:31;13.15;;;4.47;;
37237;SDS011;23129;49.662;8.448;2023-09-30T06:13:00;22.10;;;5.85;;
37237;SDS011;23129;49.662;8.448;2023-09-30T06:15:29;15.07;;;5.53;;
37237;SDS011;23129;49.662;8.448;2023-09-30T06:17:58;14.18;;;5.25;;
37237;SDS011;23129;49.662;8.448;2023-09-30T06:20:27;12.63;;;5.40;;
37237;SDS011;23129;49.662;8.448;2023-09-30T06:22:59;10.20;;;4.50;;
37237;SDS011;23129;49.662;8.448;2023-09-30T06:25:27;11.48;;;5.00;;
37237;SDS011;23129;49.662;8.448;2023-09-30T06:27:57;10.05;;;4.90;;
37237;SDS011;23129;49.662;8.448;2023-09-30T06:30:25;10.40;;;4.75;;
37237;SDS011;23129;49.662;8.448;2023-09-30T06:32:58;7.50;;;4.85;;
37237;SDS011;23129;49.662;8.448;2023-09-30T06:35:28;14.32;;;5.63;;
37237;SDS011;23129;49.662;8.448;2023-09-30T06:38:02;12.68;;;5.40;;
37237;SDS011;23129;49.662;8.448;2023-09-30T06:40:33;12.68;;;5.30;;
37237;SDS011;23129;49.662;8.448;2023-09-30T06:43:06;23.80;;;5.68;;
37237;SDS011;23129;49.662;8.448;2023-09-30T06:45:35;14.50;;;5.90;;
37237;SDS011;23129;49.662;8.448;2023-09-30T06:48:12;12.60;;;5.50;;
37237;SDS011;23129;49.662;8.448;2023-09-30T06:50:43;13.02;;;4.97;;
37237;SDS011;23129;49.662;8.448;2023-09-30T06:53:16;10.10;;;4.80;;
37237;SDS011;23129;49.662;8.448;2023-09-30T06:55:45;19.70;;;6.32;;
37237;SDS011;23129;49.662;8.448;2023-09-30T06:58:14;8.90;;;5.25;;
37237;SDS011;23129;49.662;8.448;2023-09-30T07:00:47;12.07;;;6.13;;
37237;SDS011;23129;49.662;8.448;2023-09-30T07:03:17;8.93;;;5.75;;
37237;SDS011;23129;49.662;8.448;2023-09-30T07:05:51;19.98;;;5.90;;
37237;SDS011;23129;49.662;8.448;2023-09-30T07:08:22;14.18;;;6.00;;
37237;SDS011;23129;49.662;8.448;2023-09-30T07:10:50;11.82;;;5.68;;
37237;SDS011;23129;49.662;8.448;2023-09-30T07:13:19;12.13;;;6.30;;
37237;SDS011;23129;49.662;8.448;2023-09-30T07:15:48;15.90;;;5.43;;
37237;SDS011;23129;49.662;8.448;2023-09-30T07:18:17;15.15;;;5.50;;
37237;SDS011;23129;49.662;8.448;2023-09-30T07:20:46;15.60;;;5.25;;
37237;SDS011;23129;49.662;8.448;2023-09-30T07:23:15;12.90;;;4.80;;
37237;SDS011;23129;49.662;8.448;2023-09-30T07:25:47;12.48;;;6.07;;
37237;SDS011;23129;49.662;8.448;2023-09-30T07:28:16;9.73;;;5.80;;
37237;SDS011;23129;49.662;8.448;2023-09-30T07:30:45;10.73;;;4.50;;
37237;SDS011;23129;49.662;8.448;2023-09-30T07:33:14;14.13;;;5.63;;
37237;SDS011;23129;49.662;8.448;2023-09-30T07:35:42;17.50;;;5.00;;
37237;SDS011;23129;49.662;8.448;2023-09-30T07:38:11;10.85;;;5.57;;
37237;SDS011;23129;49.662;8.448;2023-09-30T07:40:40;15.10;;;4.95;;
37237;SDS011;23129;49.662;8.448;2023-09-30T07:43:11;12.85;;;4.15;;
37237;SDS011;23129;49.662;8.448;2023-09-30T07:45:40;8.27;;;4.20;;
37237;SDS011;23129;49.662;8.448;2023-09-30T07:48:10;9.60;;;4.05;;
37237;SDS011;23129;49.662;8.448;2023-09-30T07:50:40;12.77;;;4.50;;
37237;SDS011;23129;49.662;8.448;2023-09-30T07:53:09;10.75;;;4.68;;
37237;SDS011;23129;49.662;8.448;2023-09-30T07:55:39;7.45;;;4.15;;
37237;SDS011;23129;49.662;8.448;2023-09-30T07:58:09;18.75;;;5.05;;
37237;SDS011;23129;49.662;8.448;2023-09-30T08:00:39;8.85;;;3.70;;
37237;SDS011;23129;49.662;8.448;2023-09-30T08:03:11;7.72;;;3.95;;
37237;SDS011;23129;49.662;8.448;2023-09-30T08:05:40;10.55;;;4.55;;
37237;SDS011;23129;49.662;8.448;2023-09-30T08:08:09;13.70;;;4.68;;
37237;SDS011;23129;49.662;8.448;2023-09-30T08:10:37;17.80;;;4.25;;
37237;SDS011;23129;49.662;8.448;2023-09-30T08:13:06;9.40;;;4.68;;
37237;SDS011;23129;49.662;8.448;2023-09-30T08:15:37;8.32;;;3.92;;
37237;SDS011;23129;49.662;8.448;2023-09-30T08:18:06;11.27;;;3.85;;
37237;SDS011;23129;49.662;8.448;2023-09-30T08:20:35;10.68;;;3.50;;
37237;SDS011;23129;49.662;8.448;2023-09-30T08:23:04;14.40;;;3.50;;
37237;SDS011;23129;49.662;8.448;2023-09-30T08:25:32;12.55;;;3.58;;
37237;SDS011;23129;49.662;8.448;2023-09-30T08:28:01;15.88;;;3.92;;
37237;SDS011;23129;49.662;8.448;2023-09-30T08:30:30;11.48;;;3.80;;
37237;SDS011;23129;49.662;8.448;2023-09-30T08:33:03;11.80;;;3.50;;
37237;SDS011;23129;49.662;8.448;2023-09-30T08:35:34;9.60;;;3.60;;
37237;SDS011;23129;49.662;8.448;2023-09-30T08:38:04;11.05;;;3.17;;
37237;SDS011;23129;49.662;8.448;2023-09-30T08:40:33;9.15;;;3.67;;
37237;SDS011;23129;49.662;8.448;2023-09-30T08:43:01;9.95;;;3.25;;
37237;SDS011;23129;49.662;8.448;2023-09-30T08:45:33;11.57;;;2.90;;
37237;SDS011;23129;49.662;8.448;2023-09-30T08:48:08;7.73;;;2.40;;
37237;SDS011;23129;49.662;8.448;2023-09-30T08:50:37;8.02;;;2.80;;
37237;SDS011;23129;49.662;8.448;2023-09-30T08:53:09;8.50;;;2.38;;
37237;SDS011;23129;49.662;8.448;2023-09-30T08:55:38;8.70;;;2.67;;
37237;SDS011;23129;49.662;8.448;2023-09-30T08:58:09;4.40;;;2.30;;
37237;SDS011;23129;49.662;8.448;2023-09-30T09:00:40;7.57;;;2.60;;
37237;SDS011;23129;49.662;8.448;2023-09-30T09:03:12;9.77;;;2.65;;
37237;SDS011;23129;49.662;8.448;2023-09-30T09:05:41;13.27;;;2.60;;
37237;SDS011;23129;49.662;8.448;2023-09-30T09:08:10;5.75;;;2.53;;
37237;SDS011;23129;49.662;8.448;2023-09-30T09:10:46;12.88;;;2.90;;
37237;SDS011;23129;49.662;8.448;2023-09-30T09:13:23;3.60;;;1.67;;
37237;SDS011;23129;49.662;8.448;2023-09-30T09:16:05;13.00;;;1.98;;
37237;SDS011;23129;49.662;8.448;2023-09-30T09:18:36;5.32;;;1.95;;
37237;SDS011;23129;49.662;8.448;2023-09-30T09:21:08;9.23;;;1.45;;
37237;SDS011;23129;49.662;8.448;2023-09-30T09:23:39;6.47;;;1.70;;
37237;SDS011;23129;49.662;8.448;2023-09-30T09:26:09;4.88;;;1.73;;
37237;SDS011;23129;49.662;8.448;2023-09-30T09:28:38;8.05;;;2.08;;
37237;SDS011;23129;49.662;8.448;2023-09-30T09:31:21;4.65;;;1.92;;
37237;SDS011;23129;49.662;8.448;2023-09-30T09:33:52;5.70;;;2.35;;
37237;SDS011;23129;49.662;8.448;2023-09-30T09:36:21;7.40;;;2.00;;
37237;SDS011;23129;49.662;8.448;2023-09-30T09:39:06;6.90;;;2.13;;
37237;SDS011;23129;49.662;8.448;2023-09-30T09:41:38;6.00;;;2.30;;
37237;SDS011;23129;49.662;8.448;2023-09-30T09:44:18;8.57;;;1.83;;
37237;SDS011;23129;49.662;8.448;2023-09-30T09:46:49;4.53;;;1.83;;
37237;SDS011;23129;49.662;8.448;2023-09-30T09:49:20;7.18;;;1.77;;
37237;SDS011;23129;49.662;8.448;2023-09-30T09:51:49;11.43;;;1.90;;
37237;SDS011;23129;49.662;8.448;2023-09-30T09:54:19;7.68;;;1.85;;
37237;SDS011;23129;49.662;8.448;2023-09-30T09:56:50;4.00;;;1.73;;
37237;SDS011;23129;49.662;8.448;2023-09-30T09:59:23;3.80;;;2.07;;
37237;SDS011;23129;49.662;8.448;2023-09-30T10:01:52;5.28;;;1.98;;
37237;SDS011;23129;49.662;8.448;2023-09-30T10:04:23;4.10;;;1.88;;
37237;SDS011;23129;49.662;8.448;2023-09-30T10:06:52;6.05;;;1.88;;
37237;SDS011;23129;49.662;8.448;2023-09-30T10:09:23;3.72;;;1.80;;
37237;SDS011;23129;49.662;8.448;2023-09-30T10:11:56;7.32;;;1.88;;
37237;SDS011;23129;49.662;8.448;2023-09-30T10:14:29;7.70;;;3.07;;
37237;SDS011;23129;49.662;8.448;2023-09-30T10:17:00;9.43;;;2.20;;
37237;SDS011;23129;49.662;8.448;2023-09-30T10:19:31;5.20;;;2.03;;
37237;SDS011;23129;49.662;8.448;2023-09-30T10:24:52;5.53;;;1.80;;
37237;SDS011;23129;49.662;8.448;2023-09-30T10:27:28;7.00;;;2.22;;
37237;SDS011;23129;49.662;8.448;2023-09-30T10:30:08;7.03;;;2.45;;
37237;SDS011;23129;49.662;8.448;2023-09-30T10:35:44;5.57;;;2.05;;
37237;SDS011;23129;49.662;8.448;2023-09-30T10:41:09;11.00;;;3.67;;
37237;SDS011;23129;49.662;8.448;2023-09-30T10:43:39;5.88;;;2.17;;
37237;SDS011;23129;49.662;8.448;2023-09-30T10:46:29;4.03;;;2.15;;
37237;SDS011;23129;49.662;8.448;2023-09-30T10:49:14;7.72;;;2.95;;
37237;SDS011;23129;49.662;8.448;2023-09-30T10:51:46;6.63;;;2.10;;
37237;SDS011;23129;49.662;8.448;2023-09-30T10:54:15;8.02;;;3.65;;
37237;SDS011;23129;49.662;8.448;2023-09-30T10:56:51;16.45;;;2.83;;
37237;SDS011;23129;49.662;8.448;2023-09-30T10:59:22;8.18;;;2.58;;
37237;SDS011;23129;49.662;8.448;2023-09-30T11:01:52;6.20;;;2.28;;
37237;SDS011;23129;49.662;8.448;2023-09-30T11:04:22;5.25;;;2.67;;
37237;SDS011;23129;49.662;8.448;2023-09-30T11:06:55;9.45;;;2.85;;
37237;SDS011;23129;49.662;8.448;2023-09-30T11:09:26;7.63;;;2.22;;
37237;SDS011;23129;49.662;8.448;2023-09-30T11:11:54;9.52;;;2.05;;
37237;SDS011;23129;49.662;8.448;2023-09-30T11:14:24;7.38;;;2.40;;
37237;SDS011;23129;49.662;8.448;2023-09-30T11:16:56;11.77;;;2.78;;
37237;SDS011;23129;49.662;8.448;2023-09-30T11:19:26;5.85;;;2.20;;
37237;SDS011;23129;49.662;8.448;2023-09-30T11:21:58;6.78;;;2.35;;
37237;SDS011;23129;49.662;8.448;2023-09-30T11:24:27;8.38;;;2.50;;
37237;SDS011;23129;49.662;8.448;2023-09-30T11:26:56;9.10;;;2.50;;
37237;SDS011;23129;49.662;8.448;2023-09-30T11:29:25;6.80;;;2.60;;
37237;SDS011;23129;49.662;8.448;2023-09-30T11:31:53;8.18;;;2.58;;
37237;SDS011;23129;49.662;8.448;2023-09-30T11:34:31;8.10;;;2.50;;
37237;SDS011;23129;49.662;8.448;2023-09-30T11:37:02;6.57;;;2.50;;
37237;SDS011;23129;49.662;8.448;2023-09-30T11:39:32;7.88;;;2.60;;
37237;SDS011;23129;49.662;8.448;2023-09-30T11:42:00;8.52;;;3.00;;
37237;SDS011;23129;49.662;8.448;2023-09-30T11:44:44;7.20;;;2.22;;
37237;SDS011;23129;49.662;8.448;2023-09-30T11:47:14;9.45;;;2.60;;
37237;SDS011;23129;49.662;8.448;2023-09-30T11:49:43;8.95;;;2.60;;
37237;SDS011;23129;49.662;8.448;2023-09-30T11:52:25;8.48;;;2.88;;
37237;SDS011;23129;49.662;8.448;2023-09-30T11:54:55;12.23;;;3.05;;
37237;SDS011;23129;49.662;8.448;2023-09-30T11:57:24;5.70;;;2.72;;
37237;SDS011;23129;49.662;8.448;2023-09-30T11:59:53;7.88;;;2.58;;
37237;SDS011;23129;49.662;8.448;2023-09-30T12:02:22;4.50;;;2.53;;
37237;SDS011;23129;49.662;8.448;2023-09-30T12:04:50;5.90;;;2.35;;
37237;SDS011;23129;49.662;8.448;2023-09-30T12:07:20;7.07;;;2.38;;
37237;SDS011;23129;49.662;8.448;2023-09-30T12:09:50;6.30;;;2.88;;
37237;SDS011;23129;49.662;8.448;2023-09-30T12:12:18;7.28;;;3.05;;
37237;SDS011;23129;49.662;8.448;2023-09-30T12:14:47;7.55;;;3.17;;
37237;SDS011;23129;49.662;8.448;2023-09-30T12:17:17;11.70;;;3.15;;
37237;SDS011;23129;49.662;8.448;2023-09-30T12:19:47;6.13;;;3.10;;
37237;SDS011;23129;49.662;8.448;2023-09-30T12:22:16;7.47;;;2.80;;
37237;SDS011;23129;49.662;8.448;2023-09-30T12:24:46;7.32;;;3.17;;
37237;SDS011;23129;49.662;8.448;2023-09-30T12:27:15;11.50;;;3.30;;
37237;SDS011;23129;49.662;8.448;2023-09-30T12:29:43;7.47;;;3.00;;
37237;SDS011;23129;49.662;8.448;2023-09-30T12:32:14;10.32;;;3.22;;
37237;SDS011;23129;49.662;8.448;2023-09-30T12:34:43;7.43;;;2.92;;
37237;SDS011;23129;49.662;8.448;2023-09-30T12:37:12;7.22;;;3.40;;
37237;SDS011;23129;49.662;8.448;2023-09-30T12:39:40;8.20;;;3.22;;
37237;SDS011;23129;49.662;8.448;2023-09-30T12:42:12;6.93;;;3.58;;
37237;SDS011;23129;49.662;8.448;2023-09-30T12:44:42;6.82;;;2.88;;
37237;SDS011;23129;49.662;8.448;2023-09-30T12:47:10;9.77;;;3.60;;
37237;SDS011;23129;49.662;8.448;2023-09-30T12:49:39;8.25;;;3.45;;
37237;SDS011;23129;49.662;8.448;2023-09-30T12:52:08;12.20;;;3.90;;
37237;SDS011;23129;49.662;8.448;2023-09-30T12:54:36;9.13;;;3.53;;
37237;SDS011;23129;49.662;8.448;2023-09-30T12:57:05;7.35;;;2.90;;
37237;SDS011;23129;49.662;8.448;2023-09-30T12:59:36;7.15;;;3.20;;
37237;SDS011;23129;49.662;8.448;2023-09-30T13:02:04;12.52;;;4.18;;
37237;SDS011;23129;49.662;8.448;2023-09-30T13:04:34;8.27;;;2.97;;
37237;SDS011;23129;49.662;8.448;2023-09-30T13:07:04;13.77;;;4.00;;
37237;SDS011;23129;49.662;8.448;2023-09-30T13:09:33;12.25;;;3.40;;
37237;SDS011;23129;49.662;8.448;2023-09-30T13:12:03;8.27;;;3.72;;
37237;SDS011;23129;49.662;8.448;2023-09-30T13:14:32;8.82;;;3.15;;
37237;SDS011;23129;49.662;8.448;2023-09-30T13:17:02;7.38;;;3.78;;
37237;SDS011;23129;49.662;8.448;2023-09-30T13:19:34;7.17;;;3.43;;
37237;SDS011;23129;49.662;8.448;2023-09-30T13:22:03;17.00;;;3.60;;
37237;SDS011;23129;49.662;8.448;2023-09-30T13:24:44;13.45;;;4.07;;
37237;SDS011;23129;49.662;8.448;2023-09-30T13:27:13;11.05;;;3.90;;
37237;SDS011;23129;49.662;8.448;2023-09-30T13:29:43;12.65;;;3.90;;
37237;SDS011;23129;49.662;8.448;2023-09-30T13:32:14;9.50;;;3.75;;
37237;SDS011;23129;49.662;8.448;2023-09-30T13:34:45;7.18;;;2.92;;
37237;SDS011;23129;49.662;8.448;2023-09-30T13:37:15;11.63;;;3.47;;
37237;SDS011;23129;49.662;8.448;2023-09-30T13:39:43;10.52;;;4.18;;
37237;SDS011;23129;49.662;8.448;2023-09-30T13:42:12;9.07;;;3.17;;
37237;SDS011;23129;49.662;8.448;2023-09-30T13:44:40;7.22;;;3.78;;
37237;SDS011;23129;49.662;8.448;2023-09-30T13:47:09;9.63;;;4.30;;
37237;SDS011;23129;49.662;8.448;2023-09-30T13:49:39;10.27;;;4.22;;
37237;SDS011;23129;49.662;8.448;2023-09-30T13:52:07;6.93;;;3.47;;
37237;SDS011;23129;49.662;8.448;2023-09-30T13:54:36;9.15;;;4.13;;
37237;SDS011;23129;49.662;8.448;2023-09-30T13:57:05;9.23;;;3.75;;
37237;SDS011;23129;49.662;8.448;2023-09-30T13:59:33;8.48;;;4.28;;
37237;SDS011;23129;49.662;8.448;2023-09-30T14:02:02;9.20;;;3.50;;
37237;SDS011;23129;49.662;8.448;2023-09-30T14:04:31;10.57;;;4.07;;
37237;SDS011;23129;49.662;8.448;2023-09-30T14:07:03;9.48;;;4.00;;
37237;SDS011;23129;49.662;8.448;2023-09-30T14:09:34;11.13;;;3.95;;
37237;SDS011;23129;49.662;8.448;2023-09-30T14:12:03;10.30;;;3.50;;
37237;SDS011;23129;49.662;8.448;2023-09-30T14:14:32;8.73;;;3.83;;
37237;SDS011;23129;49.662;8.448;2023-09-30T14:17:01;8.38;;;3.95;;
37237;SDS011;23129;49.662;8.448;2023-09-30T14:19:34;8.40;;;3.60;;
37237;SDS011;23129;49.662;8.448;2023-09-30T14:22:05;9.52;;;3.80;;
37237;SDS011;23129;49.662;8.448;2023-09-30T14:24:34;9.07;;;3.92;;
37237;SDS011;23129;49.662;8.448;2023-09-30T14:27:03;11.00;;;3.88;;
37237;SDS011;23129;49.662;8.448;2023-09-30T14:29:32;8.85;;;4.70;;
37237;SDS011;23129;49.662;8.448;2023-09-30T14:32:01;10.10;;;3.88;;
37237;SDS011;23129;49.662;8.448;2023-09-30T14:34:29;12.07;;;4.38;;
37237;SDS011;23129;49.662;8.448;2023-09-30T14:36:58;6.57;;;2.97;;
37237;SDS011;23129;49.662;8.448;2023-09-30T14:39:28;9.07;;;4.18;;
37237;SDS011;23129;49.662;8.448;2023-09-30T14:41:57;10.18;;;4.07;;
37237;SDS011;23129;49.662;8.448;2023-09-30T14:44:25;7.97;;;3.58;;
37237;SDS011;23129;49.662;8.448;2023-09-30T14:46:54;13.85;;;3.78;;
37237;SDS011;23129;49.662;8.448;2023-09-30T14:49:24;8.30;;;3.30;;
37237;SDS011;23129;49.662;8.448;2023-09-30T14:51:52;15.13;;;4.03;;
37237;SDS011;23129;49.662;8.448;2023-09-30T14:54:23;13.02;;;5.00;;
37237;SDS011;23129;49.662;8.448;2023-09-30T14:56:53;8.38;;;4.15;;
37237;SDS011;23129;49.662;8.448;2023-09-30T14:59:22;9.93;;;4.13;;
37237;SDS011;23129;49.662;8.448;2023-09-30T15:01:51;9.80;;;3.90;;
37237;SDS011;23129;49.662;8.448;2023-09-30T15:04:20;8.93;;;3.92;;
37237;SDS011;23129;49.662;8.448;2023-09-30T15:06:48;8.85;;;3.30;;
37237;SDS011;23129;49.662;8.448;2023-09-30T15:09:17;10.05;;;3.65;;